Time;durP1;ratioP1;P1;durP2;ratioP2;P2;SDS_P1;SDS_P2;PMS_P1;PMS_P2;Temp;Humidity;BMP_temperature;BMP_pressure;BME280_temperature;BME280_humidity;BME280_pressure;Samples;Min_cycle;Max_cycle;Signal;HPM_P1;HPM_P2
2022/06/19 00:01:01;;;;;;;9.43;2.00;;;;;;;18.96;60.30;100856.88;5043520;28;20537;-56
2022/06/19 00:03:33;;;;;;;12.52;2.53;;;;;;;18.92;60.47;100853.00;5041935;28;20098;-55
2022/06/19 00:05:59;;;;;;;8.93;1.92;;;;;;;18.91;60.69;100848.66;5040327;28;20032;-54
2022/06/19 00:08:25;;;;;;;11.70;2.70;;;;;;;18.88;60.32;100846.44;5042080;28;20464;-56
2022/06/19 00:10:51;;;;;;;8.77;2.30;;;;;;;18.82;60.66;100826.63;5040524;28;20018;-56
2022/06/19 00:13:16;;;;;;;9.95;2.33;;;;;;;18.76;60.32;100824.00;5042512;28;20039;-54
2022/06/19 00:15:42;;;;;;;12.88;2.30;;;;;;;18.74;60.34;100836.84;5040609;28;20489;-56
2022/06/19 00:18:07;;;;;;;9.98;2.08;;;;;;;18.67;59.67;100842.31;5038809;28;20660;-56
2022/06/19 00:20:32;;;;;;;10.75;2.63;;;;;;;18.54;59.10;100839.75;5044692;28;20031;-56
2022/06/19 00:22:58;;;;;;;9.65;2.00;;;;;;;18.46;59.08;100834.63;5041231;28;20030;-56
2022/06/19 00:25:23;;;;;;;12.52;2.17;;;;;;;18.42;59.29;100846.88;5022454;28;20032;-54
2022/06/19 00:27:48;;;;;;;9.60;2.10;;;;;;;18.35;58.91;100859.56;5042520;28;20745;-56
2022/06/19 00:30:15;;;;;;;9.75;2.38;;;;;;;18.28;58.80;100867.69;5040948;28;20711;-56
2022/06/19 00:32:40;;;;;;;8.35;2.35;;;;;;;18.22;58.67;100865.91;5041291;28;20544;-56
2022/06/19 00:35:06;;;;;;;15.13;3.03;;;;;;;18.21;58.87;100865.06;5038751;28;20060;-55
2022/06/19 00:37:33;;;;;;;10.55;2.33;;;;;;;18.14;58.47;100850.03;5036918;28;20029;-56
2022/06/19 00:39:59;;;;;;;12.05;2.25;;;;;;;18.16;58.85;100848.75;5041336;28;20060;-54
2022/06/19 00:42:24;;;;;;;9.73;2.30;;;;;;;18.10;58.66;100848.81;5041116;28;20131;-55
2022/06/19 00:44:53;;;;;;;9.63;2.05;;;;;;;18.06;59.06;100847.63;5041599;28;20083;-55
2022/06/19 00:47:24;;;;;;;10.38;2.15;;;;;;;18.06;58.95;100853.81;5040193;28;20029;-56
2022/06/19 00:49:51;;;;;;;10.15;2.08;;;;;;;18.00;58.52;100854.72;5041129;28;20071;-55
2022/06/19 00:52:35;;;;;;;10.75;2.20;;;;;;;18.04;58.62;100849.72;5045171;28;20100;-55
2022/06/19 00:55:20;;;;;;;13.10;2.13;;;;;;;18.00;58.31;100854.72;5039929;28;20029;-56
2022/06/19 00:57:53;;;;;;;13.65;2.42;;;;;;;17.92;57.79;100844.19;5042671;28;20619;-56
2022/06/19 01:00:26;;;;;;;9.52;2.80;;;;;;;17.89;57.94;100842.78;5042976;28;20020;-56
2022/06/19 01:03:47;;;;;;;13.38;2.72;;;;;;;17.97;58.15;100840.88;5039299;28;20079;-54
2022/06/19 01:06:13;;;;;;;10.98;2.25;;;;;;;17.85;57.95;100828.13;4928248;28;20073;-53
2022/06/19 01:08:39;;;;;;;9.45;1.83;;;;;;;17.80;57.80;100827.97;5034377;28;20098;-56
2022/06/19 01:11:04;;;;;;;12.05;2.35;;;;;;;17.76;57.80;100850.94;5038741;28;20044;-56
2022/06/19 01:13:31;;;;;;;9.07;2.13;;;;;;;17.75;57.75;100878.84;5044354;28;20029;-55
2022/06/19 01:15:58;;;;;;;11.43;2.55;;;;;;;17.60;57.65;100970.41;5043108;28;20024;-55
2022/06/19 01:18:24;;;;;;;10.55;2.15;;;;;;;17.36;56.82;101051.69;5041933;28;20029;-56
2022/06/19 01:20:55;;;;;;;19.45;2.80;;;;;;;17.12;57.00;101017.47;5041952;28;20029;-56
2022/06/19 01:23:41;;;;;;;13.52;2.00;;;;;;;16.98;56.96;100936.97;5040921;28;20568;-55
2022/06/19 01:26:09;;;;;;;13.07;2.40;;;;;;;16.91;57.32;100928.13;5040178;28;20100;-55
2022/06/19 01:28:54;;;;;;;13.27;2.92;;;;;;;16.89;57.02;100977.66;5041283;28;20043;-55
2022/06/19 01:31:23;;;;;;;14.00;2.53;;;;;;;16.82;57.00;100977.66;5040916;28;20391;-55
2022/06/19 01:33:52;;;;;;;11.00;2.20;;;;;;;16.76;57.22;100934.75;5040137;28;20588;-56
2022/06/19 01:36:21;;;;;;;16.98;2.85;;;;;;;16.69;56.85;100927.53;5039002;28;20115;-55
2022/06/19 01:38:50;;;;;;;12.90;2.80;;;;;;;16.65;56.82;100953.09;5039036;28;20031;-55
2022/06/19 01:41:19;;;;;;;;;;;;;;;16.79;56.17;100975.41;5040077;28;20496;-55
2022/06/19 01:43:44;;;;;;;10.30;2.53;;;;;;;16.58;56.42;100964.88;5033617;28;20023;-55
2022/06/19 01:46:10;;;;;;;11.93;2.28;;;;;;;16.45;55.71;100971.03;5043500;28;20147;-56
2022/06/19 01:48:37;;;;;;;7.00;2.13;;;;;;;16.34;56.21;100974.34;5038917;28;20506;-55
2022/06/19 01:51:05;;;;;;;14.30;2.28;;;;;;;16.34;55.83;100960.94;5038967;28;20032;-56
2022/06/19 01:53:47;;;;;;;11.32;2.30;;;;;;;16.39;56.10;100959.28;5044019;28;20032;-54
2022/06/19 01:56:13;;;;;;;14.82;2.58;;;;;;;16.36;55.58;100975.78;5041349;28;20408;-55
2022/06/19 01:58:42;;;;;;;12.45;2.40;;;;;;;16.35;55.56;100963.41;5041808;28;20087;-56
2022/06/19 02:01:08;;;;;;;12.77;2.67;;;;;;;16.40;54.79;100968.16;5043566;28;22138;-55
2022/06/19 02:03:44;;;;;;;14.52;2.50;;;;;;;16.36;54.85;100972.28;5044676;28;20063;-56
2022/06/19 02:06:12;;;;;;;13.48;2.65;;;;;;;16.33;54.56;100967.31;5040134;28;20512;-54
2022/06/19 02:08:39;;;;;;;13.88;2.55;;;;;;;16.36;54.39;100975.78;5042396;28;20403;-55
2022/06/19 02:11:06;;;;;;;9.50;2.22;;;;;;;16.37;54.35;100982.78;5040876;28;20082;-55
2022/06/19 02:13:34;;;;;;;10.98;2.40;;;;;;;16.36;54.41;100974.94;5040758;28;20476;-56
2022/06/19 02:16:03;;;;;;;13.15;2.38;;;;;;;16.34;54.62;100960.94;5038785;28;20033;-54
2022/06/19 02:18:33;;;;;;;12.80;2.05;;;;;;;16.35;54.19;100963.41;5038076;28;20025;-55
2022/06/19 02:20:59;;;;;;;12.73;2.13;;;;;;;16.39;54.26;100979.91;5037030;28;20731;-56
2022/06/19 02:23:33;;;;;;;7.30;2.00;;;;;;;16.41;53.49;100983.19;5040472;28;20052;-55
2022/06/19 02:26:00;;;;;;;14.50;2.13;;;;;;;16.29;53.62;100960.72;5041390;28;20036;-55
2022/06/19 02:28:27;;;;;;;13.35;2.30;;;;;;;16.30;53.62;100965.88;5042736;28;20147;-55
2022/06/19 02:30:53;;;;;;;10.38;1.92;;;;;;;16.29;53.85;100969.59;5044663;28;20421;-55
2022/06/19 02:33:23;;;;;;;10.18;2.00;;;;;;;16.30;53.81;100983.81;5043022;28;20016;-54
2022/06/19 02:35:48;;;;;;;7.93;2.03;;;;;;;16.30;53.42;100984.63;5042281;28;20094;-56
2022/06/19 02:38:20;;;;;;;11.50;2.17;;;;;;;16.33;53.11;100976.19;5039721;28;20020;-54
2022/06/19 02:41:08;;;;;;;9.00;1.92;;;;;;;16.36;53.41;100991.03;5044366;28;20066;-56
2022/06/19 02:43:33;;;;;;;14.52;2.10;;;;;;;16.34;53.06;100985.06;5042588;28;20056;-55
2022/06/19 02:46:00;;;;;;;10.68;2.00;;;;;;;16.33;53.24;100972.69;5042690;28;20087;-56
2022/06/19 02:48:30;;;;;;;10.10;2.10;;;;;;;16.29;53.21;100976.81;5041754;28;20471;-56
2022/06/19 02:50:58;;;;;;;9.05;1.80;;;;;;;16.24;52.97;100973.91;5039949;28;20493;-55
2022/06/19 02:53:23;;;;;;;12.55;2.28;;;;;;;16.22;53.11;100963.41;5039698;28;20495;-55
2022/06/19 02:55:49;;;;;;;7.88;1.65;;;;;;;16.20;53.09;100964.66;5041272;28;20032;-55
2022/06/19 02:58:16;;;;;;;12.48;2.45;;;;;;;16.18;52.81;100994.28;5039275;28;20025;-55
2022/06/19 03:00:42;;;;;;;9.50;2.30;;;;;;;16.14;52.71;101078.78;5042892;28;20543;-56
2022/06/19 03:03:13;;;;;;;15.75;2.10;;;;;;;16.03;52.69;101101.66;5039084;28;20133;-54
2022/06/19 03:05:39;;;;;;;12.18;1.90;;;;;;;15.96;52.52;101087.41;5044078;28;20044;-55
2022/06/19 03:08:04;;;;;;;7.88;1.50;;;;;;;15.98;52.67;101057.75;5033246;28;20033;-55
2022/06/19 03:10:30;;;;;;;9.50;1.80;;;;;;;15.96;52.33;101022.28;5043816;28;20037;-55
2022/06/19 03:12:58;;;;;;;8.32;1.83;;;;;;;15.93;51.65;101020.03;5042030;28;20033;-56
2022/06/19 03:15:23;;;;;;;7.35;1.70;;;;;;;15.92;51.56;101013.84;5045935;28;20543;-55
2022/06/19 03:17:49;;;;;;;9.77;1.40;;;;;;;15.89;51.55;101003.50;5040583;28;20031;-55
2022/06/19 03:20:17;;;;;;;7.53;1.30;;;;;;;15.92;51.62;100994.25;5043267;28;20126;-54
2022/06/19 03:22:42;;;;;;;8.02;1.17;;;;;;;15.93;51.35;100963.78;5049095;28;20052;-55
2022/06/19 03:25:07;;;;;;;7.38;1.33;;;;;;;15.93;51.21;100956.56;5043149;28;20100;-56
2022/06/19 03:27:33;;;;;;;5.97;1.35;;;;;;;15.92;51.11;100967.47;5040654;28;20025;-55
2022/06/19 03:29:58;;;;;;;4.57;1.05;;;;;;;15.93;51.43;101001.28;5042463;28;20210;-56
2022/06/19 03:32:23;;;;;;;4.93;1.10;;;;;;;15.87;51.11;101012.75;5038288;28;20036;-55
2022/06/19 03:34:49;;;;;;;5.28;1.20;;;;;;;15.87;51.60;100981.44;5045572;28;20029;-55
2022/06/19 03:37:14;;;;;;;7.72;1.73;;;;;;;15.88;51.48;100952.81;5047202;28;20112;-54
2022/06/19 03:39:39;;;;;;;5.70;1.17;;;;;;;15.90;51.26;100932.00;5050760;28;20043;-56
2022/06/19 03:42:06;;;;;;;5.57;1.50;;;;;;;15.88;50.33;100934.88;5045320;28;20021;-55
2022/06/19 03:44:31;;;;;;;6.82;1.25;;;;;;;15.88;49.82;100910.78;5046139;28;20035;-56
2022/06/19 03:46:56;;;;;;;6.43;1.02;;;;;;;15.84;49.82;100893.47;5052117;28;20021;-55
2022/06/19 03:49:22;;;;;;;9.43;1.48;;;;;;;15.82;49.51;100919.63;5048247;28;20120;-55
2022/06/19 03:51:47;;;;;;;5.70;1.33;;;;;;;15.78;49.07;100967.41;5048637;28;20119;-54
2022/06/19 03:54:12;;;;;;;4.82;1.10;;;;;;;15.74;48.97;101013.56;5048413;28;20045;-55
2022/06/19 03:56:39;;;;;;;7.78;1.33;;;;;;;15.77;49.20;100997.09;5038950;28;20513;-55
2022/06/19 03:59:04;;;;;;;8.57;1.20;;;;;;;15.76;49.30;101000.78;5048415;28;20028;-55
2022/06/19 04:01:35;;;;;;;5.10;1.30;;;;;;;15.76;49.22;101000.78;5045216;28;20107;-56
2022/06/19 04:04:01;;;;;;;7.97;1.30;;;;;;;15.80;49.28;100956.50;5041952;28;20024;-56
2022/06/19 04:06:31;;;;;;;6.93;1.27;;;;;;;15.75;49.29;100919.63;5040468;28;20036;-55
2022/06/19 04:08:57;;;;;;;9.80;1.30;;;;;;;15.72;49.08;100893.25;5036939;28;20388;-55
2022/06/19 04:11:24;;;;;;;6.90;1.10;;;;;;;15.66;49.41;100878.00;5037805;28;20119;-55
2022/06/19 04:13:49;;;;;;;12.00;1.75;;;;;;;15.65;49.67;100856.81;5039895;28;20302;-54
2022/06/19 04:16:20;;;;;;;8.23;1.38;;;;;;;15.61;50.21;100834.97;5039789;28;20404;-56
2022/06/19 04:18:50;;;;;;;11.40;1.60;;;;;;;15.57;50.18;100824.81;5040704;28;20028;-56
2022/06/19 04:21:19;;;;;;;6.88;1.73;;;;;;;15.56;50.98;100807.09;5035068;28;20033;-55
2022/06/19 04:23:45;;;;;;;11.40;1.80;;;;;;;15.53;51.17;100776.22;5043645;28;20017;-55
2022/06/19 04:26:13;;;;;;;7.03;1.45;;;;;;;15.51;51.30;100778.28;5044606;28;20039;-56
2022/06/19 04:28:39;;;;;;;10.85;2.10;;;;;;;15.48;51.84;100762.63;5047116;28;20116;-56
2022/06/19 04:31:05;;;;;;;9.43;1.60;;;;;;;15.46;52.27;100762.84;5049322;28;20120;-56
2022/06/19 04:33:32;;;;;;;6.65;1.55;;;;;;;15.45;52.97;100765.72;5047884;28;20032;-56
2022/06/19 04:35:58;;;;;;;17.73;1.70;;;;;;;15.50;53.31;100768.59;5047452;28;20024;-54
2022/06/19 04:38:23;;;;;;;9.98;1.55;;;;;;;15.53;53.24;100770.88;5050515;28;20370;-56
2022/06/19 04:40:50;;;;;;;10.30;1.83;;;;;;;15.56;53.31;100780.34;5043483;28;20043;-55
2022/06/19 04:43:16;;;;;;;8.82;1.45;;;;;;;15.58;53.49;100768.44;5046097;28;20025;-55
2022/06/19 04:45:41;;;;;;;10.13;1.90;;;;;;;15.60;53.74;100760.19;5047320;28;20028;-56
2022/06/19 04:48:07;;;;;;;7.95;1.60;;;;;;;15.59;53.60;100751.34;5043316;28;20035;-55
2022/06/19 04:50:33;;;;;;;8.15;1.80;;;;;;;15.56;53.93;100713.44;5042096;28;20041;-56
2022/06/19 04:52:59;;;;;;;14.05;1.60;;;;;;;15.52;53.55;100693.47;5036635;28;20021;-55
2022/06/19 04:55:24;;;;;;;9.80;2.03;;;;;;;15.52;53.82;100728.25;5031890;28;20044;-56
2022/06/19 04:57:49;;;;;;;8.85;1.60;;;;;;;15.48;54.03;100733.19;5041026;28;20029;-56
2022/06/19 05:00:17;;;;;;;8.10;1.85;;;;;;;15.53;54.32;100760.16;5039936;28;20213;-56
2022/06/19 05:02:42;;;;;;;8.95;2.03;;;;;;;15.52;54.71;100763.06;5042366;28;20078;-56
2022/06/19 05:05:13;;;;;;;11.98;1.63;;;;;;;15.60;54.94;100776.25;5036134;28;20021;-56
2022/06/19 05:07:38;;;;;;;12.70;1.80;;;;;;;15.62;54.53;100759.00;5038140;28;20056;-55
2022/06/19 05:10:04;;;;;;;7.07;1.30;;;;;;;15.67;54.88;100767.22;5040422;28;20099;-56
2022/06/19 05:12:29;;;;;;;9.55;1.55;;;;;;;15.74;55.22;100773.41;5039179;28;20024;-55
2022/06/19 05:14:55;;;;;;;6.88;1.45;;;;;;;15.79;55.39;100770.09;5035529;28;20432;-56
2022/06/19 05:17:20;;;;;;;7.85;1.65;;;;;;;15.88;55.46;100822.41;5036304;28;20037;-55
2022/06/19 05:19:45;;;;;;;12.18;1.73;;;;;;;15.98;55.25;100854.16;5041342;28;20028;-56
2022/06/19 05:22:11;;;;;;;10.80;1.80;;;;;;;16.08;55.47;100849.19;5038943;28;20050;-55
2022/06/19 05:24:36;;;;;;;6.82;1.42;;;;;;;16.18;55.26;100838.06;5035707;28;20029;-55
2022/06/19 05:27:07;;;;;;;10.23;2.20;;;;;;;16.27;54.98;100864.47;5037794;28;20096;-56
2022/06/19 05:29:32;;;;;;;8.38;1.52;;;;;;;16.34;55.14;100891.25;5039085;28;20127;-55
2022/06/19 05:31:58;;;;;;;7.50;1.55;;;;;;;16.37;55.09;100913.09;5041779;28;20162;-56
2022/06/19 05:34:23;;;;;;;11.50;1.70;;;;;;;16.46;54.68;100934.31;5038811;28;20045;-56
2022/06/19 05:36:48;;;;;;;7.10;1.63;;;;;;;16.40;54.73;100934.13;5034200;28;20657;-56
2022/06/19 05:39:14;;;;;;;10.77;1.90;;;;;;;16.45;55.06;100930.81;5035002;28;20037;-56
2022/06/19 05:41:40;;;;;;;11.02;1.60;;;;;;;16.54;54.64;100931.47;5043800;28;20029;-55
2022/06/19 05:44:06;;;;;;;8.95;1.80;;;;;;;16.69;55.00;100937.44;5046287;28;20496;-56
2022/06/19 05:46:31;;;;;;;7.18;1.50;;;;;;;16.77;54.56;100947.13;5048136;28;20025;-54
2022/06/19 05:48:56;;;;;;;6.57;1.35;;;;;;;16.78;54.69;100941.56;5043062;28;20021;-55
2022/06/19 05:51:24;;;;;;;13.88;1.95;;;;;;;16.89;54.14;100934.72;5042322;28;20532;-55
2022/06/19 05:53:55;;;;;;;8.23;1.42;;;;;;;16.92;53.74;100923.59;5051242;28;20032;-56
2022/06/19 05:56:22;;;;;;;9.85;1.80;;;;;;;16.95;53.69;100948.13;5038984;28;20229;-55
2022/06/19 05:58:47;;;;;;;9.32;1.75;;;;;;;17.01;54.13;100951.81;5036969;28;20029;-55
2022/06/19 06:01:14;;;;;;;9.55;1.77;;;;;;;17.12;54.22;100971.84;5038469;28;20038;-55
2022/06/19 06:03:41;;;;;;;10.32;1.90;;;;;;;17.15;54.30;100976.78;5041840;28;20056;-55
2022/06/19 06:06:13;;;;;;;9.32;1.88;;;;;;;17.13;54.28;100979.69;5041774;28;20025;-55
2022/06/19 06:08:39;;;;;;;8.13;1.38;;;;;;;17.13;54.15;100997.63;5045638;28;20041;-55
2022/06/19 06:11:05;;;;;;;7.82;1.70;;;;;;;17.10;53.59;101004.25;5047030;28;20064;-55
2022/06/19 06:13:31;;;;;;;11.07;1.98;;;;;;;17.10;53.54;101008.81;5044225;28;20509;-55
2022/06/19 06:15:57;;;;;;;10.02;1.90;;;;;;;17.17;53.81;101001.56;5047215;28;20078;-55
2022/06/19 06:18:23;;;;;;;9.75;1.58;;;;;;;17.27;53.60;100986.66;5044763;28;20535;-54
2022/06/19 06:21:08;;;;;;;10.63;2.30;;;;;;;17.36;52.62;101003.38;5050882;28;20036;-56
2022/06/19 06:23:34;;;;;;;8.48;1.40;;;;;;;17.38;52.06;101063.03;5045363;28;20037;-55
2022/06/19 06:26:08;;;;;;;13.95;1.92;;;;;;;17.32;52.11;101088.03;5038900;28;20025;-54
2022/06/19 06:28:35;;;;;;;8.35;1.30;;;;;;;17.33;51.83;101095.03;5042245;28;20093;-53
2022/06/19 06:31:01;;;;;;;8.55;1.70;;;;;;;17.28;51.64;101119.81;5043476;28;20167;-56
2022/06/19 06:33:26;;;;;;;6.68;1.35;;;;;;;17.17;50.69;101125.81;5044603;28;20530;-54
2022/06/19 06:35:52;;;;;;;7.53;1.60;;;;;;;17.14;50.21;101117.38;5044873;28;20048;-55
2022/06/19 06:38:17;;;;;;;7.22;1.50;;;;;;;17.02;49.34;101117.16;5045483;28;20477;-53
2022/06/19 06:40:42;;;;;;;7.53;1.27;;;;;;;16.94;48.40;101142.31;5042906;28;20129;-55
2022/06/19 06:43:08;;;;;;;6.57;1.30;;;;;;;16.83;47.69;101171.63;5048611;28;20469;-56
2022/06/19 06:45:34;;;;;;;6.75;1.40;;;;;;;16.71;47.84;101215.13;5045952;28;20029;-56
2022/06/19 06:48:00;;;;;;;10.82;1.48;;;;;;;16.57;48.36;101239.38;5046645;28;20443;-54
2022/06/19 06:50:26;;;;;;;10.18;1.52;;;;;;;16.33;50.11;101211.22;5038171;28;20090;-55
2022/06/19 06:52:51;;;;;;;9.18;1.92;;;;;;;16.09;53.09;101220.56;5047229;28;20032;-54
2022/06/19 06:55:16;;;;;;;10.63;1.67;;;;;;;15.79;54.98;101225.31;5046217;28;20012;-55
2022/06/19 06:57:42;;;;;;;6.60;1.73;;;;;;;15.51;57.70;101217.25;5044655;28;20021;-54
2022/06/19 07:00:13;;;;;;;8.63;1.73;;;;;;;15.33;59.46;101231.13;5045114;28;20033;-55
2022/06/19 07:02:39;;;;;;;10.10;1.88;;;;;;;15.18;60.13;101225.00;5043901;28;20027;-56
2022/06/19 07:05:04;;;;;;;8.00;1.60;;;;;;;15.04;61.30;101221.38;5041038;28;20025;-55
2022/06/19 07:07:30;;;;;;;10.18;2.00;;;;;;;14.95;62.42;101222.50;5048479;28;20364;-55
2022/06/19 07:09:55;;;;;;;8.30;1.80;;;;;;;14.91;63.11;101209.69;5048578;28;20017;-55
2022/06/19 07:12:20;;;;;;;9.82;2.08;;;;;;;14.92;64.45;101230.91;5049462;28;20024;-55
2022/06/19 07:14:45;;;;;;;10.68;2.17;;;;;;;14.83;64.78;101224.03;5051761;28;20017;-56
2022/06/19 07:17:11;;;;;;;11.70;2.20;;;;;;;14.84;65.85;101223.00;5048666;28;20056;-55
2022/06/19 07:19:36;;;;;;;8.40;1.90;;;;;;;14.88;67.25;101226.94;5058328;28;20495;-55
2022/06/19 07:22:01;;;;;;;12.90;2.35;;;;;;;14.85;67.04;101228.16;5046710;28;20025;-55
2022/06/19 07:24:26;;;;;;;11.63;2.15;;;;;;;14.83;67.12;101248.91;5046903;28;20036;-55
2022/06/19 07:26:52;;;;;;;13.35;2.38;;;;;;;14.75;67.53;101277.63;5044918;28;20033;-55
2022/06/19 07:29:17;;;;;;;9.75;1.95;;;;;;;14.63;68.06;101297.81;5059600;28;20029;-55
2022/06/19 07:31:43;;;;;;;10.20;2.13;;;;;;;14.50;68.62;101298.47;5050065;28;20110;-56
2022/06/19 07:34:08;;;;;;;12.15;1.88;;;;;;;14.40;69.49;101263.13;5050199;28;20021;-55
2022/06/19 07:36:33;;;;;;;11.02;2.13;;;;;;;14.38;69.83;101231.25;5049565;28;20036;-56
2022/06/19 07:38:59;;;;;;;13.85;2.20;;;;;;;14.47;70.90;101189.28;5046533;28;20021;-56
2022/06/19 07:41:24;;;;;;;13.18;2.15;;;;;;;14.58;71.15;101178.09;5047350;28;20064;-56
2022/06/19 07:43:50;;;;;;;11.30;1.95;;;;;;;14.69;71.55;101147.34;5053134;28;21395;-57
2022/06/19 07:46:16;;;;;;;9.48;2.10;;;;;;;14.77;71.96;101075.06;5053399;28;20045;-55
2022/06/19 07:51:27;;;;;;;12.13;2.47;;;;;;;14.92;72.65;101010.78;5053419;28;20036;-55
2022/06/19 07:53:52;;;;;;;12.65;2.15;;;;;;;14.97;72.82;101019.88;5046474;28;20025;-55
2022/06/19 07:56:17;;;;;;;14.35;2.22;;;;;;;15.08;72.50;101054.13;5043930;28;20033;-55
2022/06/19 07:58:43;;;;;;;12.82;2.67;;;;;;;15.16;72.70;101043.28;5045964;28;20021;-55
2022/06/19 08:01:09;;;;;;;15.80;2.63;;;;;;;15.26;72.72;101031.38;5044452;28;20018;-55
2022/06/19 08:03:34;;;;;;;15.30;2.92;;;;;;;15.40;73.18;101068.75;5047587;28;20037;-54
2022/06/19 08:06:00;;;;;;;8.52;2.20;;;;;;;15.48;72.85;101114.09;5046064;28;20028;-52
2022/06/19 08:08:28;;;;;;;15.85;2.72;;;;;;;15.50;72.89;101157.53;5047009;28;20063;-54
2022/06/19 08:10:55;;;;;;;13.30;2.45;;;;;;;15.44;73.21;101179.75;5051174;28;20728;-55
2022/06/19 08:13:23;;;;;;;13.77;3.08;;;;;;;15.47;72.64;101163.28;5048360;28;20031;-55
2022/06/19 08:15:50;;;;;;;14.38;2.55;;;;;;;15.54;73.01;101175.88;5041566;28;20029;-55
2022/06/19 08:18:16;;;;;;;12.57;2.30;;;;;;;15.59;73.39;101203.75;5037583;28;20874;-55
2022/06/19 08:20:42;;;;;;;11.73;2.92;;;;;;;15.50;73.28;101216.44;5041716;28;20021;-55
2022/06/19 08:23:07;;;;;;;14.80;2.92;;;;;;;15.55;73.73;101186.41;5047581;28;20484;-56
2022/06/19 08:25:33;;;;;;;12.55;2.58;;;;;;;15.62;74.47;101124.94;5041459;28;20143;-55
2022/06/19 08:27:59;;;;;;;13.02;2.90;;;;;;;15.66;74.47;101126.19;5039342;28;20067;-56
2022/06/19 08:30:29;;;;;;;11.75;3.05;;;;;;;15.70;74.55;101157.72;5043856;28;20017;-55
2022/06/19 08:32:54;;;;;;;12.32;2.55;;;;;;;15.66;73.91;101185.09;5052534;28;20074;-54
2022/06/19 08:35:20;;;;;;;12.93;3.08;;;;;;;15.73;74.26;101165.34;5051407;28;20024;-53
2022/06/19 08:37:50;;;;;;;10.98;2.30;;;;;;;15.83;74.44;101145.41;5043470;28;20115;-54
2022/06/19 08:40:22;;;;;;;10.73;2.38;;;;;;;15.87;74.59;101147.50;5045952;28;20100;-55
2022/06/19 08:43:21;;;;;;;15.90;2.63;;;;;;;16.00;74.76;101142.22;5054789;28;20021;-56
2022/06/19 08:45:57;;;;;;;11.10;2.33;;;;;;;16.01;74.38;101100.19;5045550;28;20025;-54
2022/06/19 08:48:53;;;;;;;15.57;3.10;;;;;;;16.12;74.16;101104.97;5044492;28;20017;-55
2022/06/19 08:51:34;;;;;;;12.82;2.80;;;;;;;16.20;73.19;101096.78;5049413;28;20036;-55
2022/06/19 08:54:26;;;;;;;10.20;2.03;;;;;;;16.23;73.19;101103.59;5049444;28;20025;-56
2022/06/19 08:57:31;;;;;;;12.15;2.60;;;;;;;16.29;72.87;101090.19;5044638;28;20033;-56
2022/06/19 09:00:04;;;;;;;10.68;2.50;;;;;;;16.34;73.50;101060.94;5043320;28;20075;-56
2022/06/19 09:02:45;;;;;;;14.27;2.92;;;;;;;16.43;72.91;101042.78;5043958;28;20040;-54
2022/06/19 09:05:45;;;;;;;10.93;2.67;;;;;;;16.39;72.80;101028.97;5040256;28;20029;-54
2022/06/19 09:08:28;;;;;;;12.95;2.60;;;;;;;16.69;73.53;101033.97;5038973;28;20052;-54
2022/06/19 09:11:05;;;;;;;13.02;2.78;;;;;;;16.99;73.50;101034.38;5046218;28;20491;-55
2022/06/19 09:14:08;;;;;;;9.20;2.22;;;;;;;17.17;71.84;101026.53;5052040;28;20024;-56
2022/06/19 09:16:48;;;;;;;12.07;2.58;;;;;;;17.24;71.01;101024.66;5038792;28;20064;-57
2022/06/19 09:19:25;;;;;;;11.23;2.20;;;;;;;17.40;69.69;101054.78;5036886;28;20392;-56
2022/06/19 09:21:53;;;;;;;11.13;2.38;;;;;;;17.61;69.51;101071.44;5038502;28;20037;-55
2022/06/19 09:24:37;;;;;;;10.25;2.15;;;;;;;17.86;68.91;101105.69;5035914;28;20500;-53
2022/06/19 09:27:02;;;;;;;13.63;2.70;;;;;;;18.02;68.53;101113.28;5033811;28;20029;-54
2022/06/19 09:29:36;;;;;;;10.52;2.20;;;;;;;18.18;67.38;101133.47;5044358;28;20039;-54
2022/06/19 09:32:15;;;;;;;7.10;2.30;;;;;;;18.42;66.58;101150.75;5054584;28;20039;-54
2022/06/19 09:34:49;;;;;;;13.27;2.47;;;;;;;18.64;65.85;101172.81;5040477;28;20476;-55
2022/06/19 09:37:44;;;;;;;8.68;2.22;;;;;;;18.72;64.67;101175.25;5039866;28;20639;-56
2022/06/19 09:40:23;;;;;;;10.18;2.00;;;;;;;18.68;63.32;101165.97;5027327;28;20124;-55
2022/06/19 09:42:57;;;;;;;9.82;1.85;;;;;;;18.64;62.35;101152.13;5041335;28;20104;-55
2022/06/19 09:46:00;;;;;;;9.15;1.88;;;;;;;18.73;62.42;101161.56;5043766;28;20111;-55
2022/06/19 09:48:29;;;;;;;8.57;1.77;;;;;;;18.59;61.36;101141.16;5040534;28;20491;-54
2022/06/19 09:51:02;;;;;;;7.30;1.88;;;;;;;18.53;59.90;101131.25;5051243;28;20060;-55
2022/06/19 09:53:36;;;;;;;6.28;1.90;;;;;;;18.50;59.61;101121.75;5047103;28;20028;-55
2022/06/19 09:56:12;;;;;;;6.55;1.80;;;;;;;18.48;59.42;101118.44;5045351;28;20028;-54
2022/06/19 09:58:53;;;;;;;7.43;1.58;;;;;;;18.53;59.22;101112.44;5041770;28;20044;-55
2022/06/19 10:01:20;;;;;;;6.72;1.58;;;;;;;18.55;59.06;101096.91;5048558;28;20112;-53
2022/06/19 10:04:03;;;;;;;6.78;1.80;;;;;;;18.55;57.91;101097.72;5044183;28;20029;-55
2022/06/19 10:06:40;;;;;;;7.13;1.60;;;;;;;18.55;57.22;101088.84;5045705;28;20033;-53
2022/06/19 10:09:41;;;;;;;8.82;1.73;;;;;;;18.52;56.96;101078.50;5043521;28;20029;-55
2022/06/19 10:12:13;;;;;;;6.10;1.40;;;;;;;18.60;56.97;101091.69;5041313;28;20090;-56
2022/06/19 10:14:47;;;;;;;7.68;1.75;;;;;;;18.75;57.46;101075.25;5046792;28;20033;-55
2022/06/19 10:17:27;;;;;;;5.88;1.48;;;;;;;18.96;57.49;101066.81;5045023;28;20041;-55
2022/06/19 10:19:57;;;;;;;5.57;1.60;;;;;;;19.16;56.94;101050.50;5042608;28;20029;-55
2022/06/19 10:22:42;;;;;;;6.00;1.60;;;;;;;19.40;56.87;101035.34;5042470;28;20029;-54
2022/06/19 10:25:22;;;;;;;6.07;1.50;;;;;;;19.63;55.97;101037.38;5032017;28;20051;-52
2022/06/19 10:28:25;;;;;;;8.60;1.98;;;;;;;19.92;55.99;101041.97;5036656;28;20090;-56
2022/06/19 10:31:15;;;;;;;6.93;1.90;;;;;;;20.15;54.67;101029.66;5041836;28;20115;-54
2022/06/19 10:34:02;;;;;;;9.23;1.63;;;;;;;20.42;55.33;101030.94;5042999;28;20053;-54
2022/06/19 10:37:00;;;;;;;8.40;1.98;;;;;;;20.60;55.13;101028.19;5052700;28;20031;-55
2022/06/19 10:39:37;;;;;;;7.22;1.70;;;;;;;20.79;54.16;101033.47;5036410;28;20055;-55
2022/06/19 10:42:32;;;;;;;5.55;1.67;;;;;;;20.88;54.13;101038.31;5048093;28;20068;-54
2022/06/19 10:45:12;;;;;;;7.75;1.70;;;;;;;20.91;52.71;101064.84;5025390;28;20033;-53
2022/06/19 10:48:15;;;;;;;5.60;1.80;;;;;;;21.13;52.66;101051.59;5049784;28;20392;-55
2022/06/19 10:50:58;;;;;;;5.05;1.45;;;;;;;21.22;52.81;101025.03;5044755;28;20395;-56
2022/06/19 10:53:44;;;;;;;6.57;1.70;;;;;;;21.30;52.07;101041.72;5047157;28;20052;-55
2022/06/19 10:56:30;;;;;;;7.47;1.70;;;;;;;21.32;50.81;101052.28;5057765;28;20024;-55
2022/06/19 10:58:56;;;;;;;9.43;1.88;;;;;;;21.24;50.65;101069.69;5043891;28;20020;-54
2022/06/19 11:04:23;;;;;;;7.00;1.90;;;;;;;21.06;51.13;101093.25;5051634;28;20163;-55
2022/06/19 11:07:04;;;;;;;6.75;1.88;;;;;;;21.03;51.75;101114.25;5050038;28;20096;-55
2022/06/19 11:09:38;;;;;;;7.07;1.98;;;;;;;;;;5049933;28;20392;-55
2022/06/19 11:12:26;;;;;;;7.53;1.88;;;;;;;;;;5049922;28;20056;-52
2022/06/19 11:14:57;;;;;;;7.65;1.92;;;;;;;20.86;52.43;101110.59;5035139;28;20033;-55
2022/06/19 11:17:39;;;;;;;5.95;1.83;;;;;;;20.83;51.86;101102.97;5046498;28;20032;-55
2022/06/19 11:20:16;;;;;;;8.40;2.08;;;;;;;20.86;51.89;101107.91;5054539;28;20017;-53
2022/06/19 11:22:44;;;;;;;9.18;2.08;;;;;;;20.82;52.53;101112.13;5044240;28;20025;-55
2022/06/19 11:25:18;;;;;;;8.75;1.95;;;;;;;20.89;53.00;101120.94;5047729;28;20083;-55
2022/06/19 11:27:59;;;;;;;9.57;2.22;;;;;;;20.85;52.89;101127.03;5043701;28;20020;-54
2022/06/19 11:30:42;;;;;;;6.00;2.10;;;;;;;20.99;53.13;101145.50;5046960;28;20652;-54
2022/06/19 11:33:16;;;;;;;8.57;2.40;;;;;;;21.14;53.83;101139.66;5056206;28;20040;-54
2022/06/19 11:35:56;;;;;;;8.43;2.38;;;;;;;21.24;53.58;101133.69;5048677;28;20020;-55
2022/06/19 11:38:42;;;;;;;11.63;2.40;;;;;;;21.29;53.01;101137.34;5050237;28;20554;-54
2022/06/19 11:41:29;;;;;;;6.38;1.98;;;;;;;21.40;53.19;101135.72;5045891;28;20032;-55
2022/06/19 11:44:16;;;;;;;7.75;2.33;;;;;;;21.47;53.85;101130.19;5043682;28;20036;-55